sensor_id;sensor_type;location;lat;lon;timestamp;P1;durP1;ratioP1;P2;durP2;ratioP2
46781;SDS011;32541;46.298;11.506;2023-03-14T00:02:01;9.27;;;5.03;;
46781;SDS011;32541;46.298;11.506;2023-03-14T00:04:26;9.43;;;5.67;;
46781;SDS011;32541;46.298;11.506;2023-03-14T00:06:52;8.17;;;5.63;;
46781;SDS011;32541;46.298;11.506;2023-03-14T00:09:17;9.53;;;5.67;;
46781;SDS011;32541;46.298;11.506;2023-03-14T00:11:43;8.27;;;5.60;;
46781;SDS011;32541;46.298;11.506;2023-03-14T00:14:08;8.53;;;5.53;;
46781;SDS011;32541;46.298;11.506;2023-03-14T00:16:34;9.30;;;5.57;;
46781;SDS011;32541;46.298;11.506;2023-03-14T00:18:59;12.43;;;6.00;;
46781;SDS011;32541;46.298;11.506;2023-03-14T00:21:25;10.37;;;5.90;;
46781;SDS011;32541;46.298;11.506;2023-03-14T00:23:50;9.80;;;5.87;;
46781;SDS011;32541;46.298;11.506;2023-03-14T00:26:17;8.30;;;5.50;;
46781;SDS011;32541;46.298;11.506;2023-03-14T00:28:44;8.50;;;5.37;;
46781;SDS011;32541;46.298;11.506;2023-03-14T00:31:11;8.40;;;5.60;;
46781;SDS011;32541;46.298;11.506;2023-03-14T00:33:39;8.67;;;6.13;;
46781;SDS011;32541;46.298;11.506;2023-03-14T00:36:06;10.57;;;6.80;;
46781;SDS011;32541;46.298;11.506;2023-03-14T00:38:37;11.07;;;7.17;;
46781;SDS011;32541;46.298;11.506;2023-03-14T00:41:04;11.60;;;7.00;;
46781;SDS011;32541;46.298;11.506;2023-03-14T00:43:40;10.53;;;6.53;;
46781;SDS011;32541;46.298;11.506;2023-03-14T00:46:06;14.20;;;6.43;;
46781;SDS011;32541;46.298;11.506;2023-03-14T00:48:32;10.60;;;6.77;;
46781;SDS011;32541;46.298;11.506;2023-03-14T00:50:59;11.43;;;7.37;;
46781;SDS011;32541;46.298;11.506;2023-03-14T00:53:24;12.27;;;7.50;;
46781;SDS011;32541;46.298;11.506;2023-03-14T00:55:49;14.17;;;7.77;;
46781;SDS011;32541;46.298;11.506;2023-03-14T00:58:15;11.97;;;8.13;;
46781;SDS011;32541;46.298;11.506;2023-03-14T01:00:42;11.53;;;8.10;;
46781;SDS011;32541;46.298;11.506;2023-03-14T01:03:09;11.93;;;8.27;;
46781;SDS011;32541;46.298;11.506;2023-03-14T01:05:35;11.93;;;8.03;;
46781;SDS011;32541;46.298;11.506;2023-03-14T01:08:01;16.97;;;9.10;;
46781;SDS011;32541;46.298;11.506;2023-03-14T01:10:27;15.47;;;8.07;;
46781;SDS011;32541;46.298;11.506;2023-03-14T01:12:53;14.00;;;8.30;;
46781;SDS011;32541;46.298;11.506;2023-03-14T01:15:19;15.07;;;9.50;;
46781;SDS011;32541;46.298;11.506;2023-03-14T01:17:45;15.07;;;9.17;;
46781;SDS011;32541;46.298;11.506;2023-03-14T01:20:11;18.67;;;9.30;;
46781;SDS011;32541;46.298;11.506;2023-03-14T01:22:39;14.13;;;9.97;;
46781;SDS011;32541;46.298;11.506;2023-03-14T01:25:08;14.60;;;10.23;;
46781;SDS011;32541;46.298;11.506;2023-03-14T01:27:36;17.70;;;10.20;;
46781;SDS011;32541;46.298;11.506;2023-03-14T01:30:01;18.77;;;10.90;;
46781;SDS011;32541;46.298;11.506;2023-03-14T01:32:27;17.20;;;10.00;;
46781;SDS011;32541;46.298;11.506;2023-03-14T01:34:53;16.53;;;9.70;;
46781;SDS011;32541;46.298;11.506;2023-03-14T01:37:18;18.00;;;9.80;;
46781;SDS011;32541;46.298;11.506;2023-03-14T01:39:43;16.93;;;9.30;;
46781;SDS011;32541;46.298;11.506;2023-03-14T01:42:11;16.93;;;10.53;;
46781;SDS011;32541;46.298;11.506;2023-03-14T01:44:53;18.03;;;11.20;;
46781;SDS011;32541;46.298;11.506;2023-03-14T01:47:19;15.55;;;10.32;;
46781;SDS011;32541;46.298;11.506;2023-03-14T01:49:46;16.20;;;10.23;;
46781;SDS011;32541;46.298;11.506;2023-03-14T01:52:19;16.80;;;10.13;;
46781;SDS011;32541;46.298;11.506;2023-03-14T01:55:09;18.07;;;11.00;;
46781;SDS011;32541;46.298;11.506;2023-03-14T01:57:43;15.67;;;9.43;;
46781;SDS011;32541;46.298;11.506;2023-03-14T02:00:12;15.02;;;9.70;;
46781;SDS011;32541;46.298;11.506;2023-03-14T02:02:41;16.27;;;10.23;;
46781;SDS011;32541;46.298;11.506;2023-03-14T02:05:19;14.10;;;9.70;;
46781;SDS011;32541;46.298;11.506;2023-03-14T02:07:54;16.13;;;9.60;;
46781;SDS011;32541;46.298;11.506;2023-03-14T02:10:26;15.33;;;10.47;;
46781;SDS011;32541;46.298;11.506;2023-03-14T02:12:54;17.27;;;11.43;;
46781;SDS011;32541;46.298;11.506;2023-03-14T02:15:22;18.37;;;10.53;;
46781;SDS011;32541;46.298;11.506;2023-03-14T02:17:48;14.73;;;9.53;;
46781;SDS011;32541;46.298;11.506;2023-03-14T02:23:10;17.83;;;11.40;;
46781;SDS011;32541;46.298;11.506;2023-03-14T02:28:10;16.05;;;10.20;;
46781;SDS011;32541;46.298;11.506;2023-03-14T02:30:36;15.60;;;11.17;;
46781;SDS011;32541;46.298;11.506;2023-03-14T02:35:37;15.40;;;11.07;;
46781;SDS011;32541;46.298;11.506;2023-03-14T02:38:10;18.83;;;13.10;;
46781;SDS011;32541;46.298;11.506;2023-03-14T02:43:26;15.73;;;11.13;;
46781;SDS011;32541;46.298;11.506;2023-03-14T02:45:51;17.90;;;10.43;;
46781;SDS011;32541;46.298;11.506;2023-03-14T02:48:21;16.37;;;10.30;;
46781;SDS011;32541;46.298;11.506;2023-03-14T02:50:51;15.27;;;10.93;;
46781;SDS011;32541;46.298;11.506;2023-03-14T02:53:20;16.83;;;11.07;;
46781;SDS011;32541;46.298;11.506;2023-03-14T02:55:48;19.83;;;11.70;;
46781;SDS011;32541;46.298;11.506;2023-03-14T02:58:15;21.50;;;12.70;;
46781;SDS011;32541;46.298;11.506;2023-03-14T03:00:41;17.03;;;11.27;;
46781;SDS011;32541;46.298;11.506;2023-03-14T03:03:07;17.60;;;10.87;;
46781;SDS011;32541;46.298;11.506;2023-03-14T03:05:32;18.13;;;11.17;;
46781;SDS011;32541;46.298;11.506;2023-03-14T03:07:58;16.87;;;11.60;;
46781;SDS011;32541;46.298;11.506;2023-03-14T03:10:23;17.03;;;11.40;;
46781;SDS011;32541;46.298;11.506;2023-03-14T03:12:49;21.40;;;13.07;;
46781;SDS011;32541;46.298;11.506;2023-03-14T03:15:14;19.97;;;12.03;;
46781;SDS011;32541;46.298;11.506;2023-03-14T03:17:40;21.83;;;13.67;;
46781;SDS011;32541;46.298;11.506;2023-03-14T03:20:06;20.63;;;12.57;;
46781;SDS011;32541;46.298;11.506;2023-03-14T03:22:34;20.10;;;11.97;;
46781;SDS011;32541;46.298;11.506;2023-03-14T03:25:03;18.03;;;10.90;;
46781;SDS011;32541;46.298;11.506;2023-03-14T03:27:30;19.37;;;11.53;;
46781;SDS011;32541;46.298;11.506;2023-03-14T03:29:57;18.87;;;11.97;;
46781;SDS011;32541;46.298;11.506;2023-03-14T03:32:22;19.10;;;11.53;;
46781;SDS011;32541;46.298;11.506;2023-03-14T03:34:48;19.83;;;12.57;;
46781;SDS011;32541;46.298;11.506;2023-03-14T03:37:13;15.77;;;11.70;;
46781;SDS011;32541;46.298;11.506;2023-03-14T03:39:39;19.70;;;10.77;;
46781;SDS011;32541;46.298;11.506;2023-03-14T03:42:04;17.47;;;10.47;;
46781;SDS011;32541;46.298;11.506;2023-03-14T03:44:30;17.03;;;9.60;;
46781;SDS011;32541;46.298;11.506;2023-03-14T03:46:55;15.33;;;10.30;;
46781;SDS011;32541;46.298;11.506;2023-03-14T03:49:20;18.83;;;12.30;;
46781;SDS011;32541;46.298;11.506;2023-03-14T03:51:46;15.07;;;10.33;;
46781;SDS011;32541;46.298;11.506;2023-03-14T03:54:12;17.90;;;11.07;;
46781;SDS011;32541;46.298;11.506;2023-03-14T03:56:37;15.57;;;10.10;;
46781;SDS011;32541;46.298;11.506;2023-03-14T03:59:03;15.93;;;9.97;;
46781;SDS011;32541;46.298;11.506;2023-03-14T04:01:28;16.93;;;10.60;;
46781;SDS011;32541;46.298;11.506;2023-03-14T04:03:54;16.80;;;9.70;;
46781;SDS011;32541;46.298;11.506;2023-03-14T04:06:19;14.70;;;9.90;;
46781;SDS011;32541;46.298;11.506;2023-03-14T04:08:44;19.40;;;9.90;;
46781;SDS011;32541;46.298;11.506;2023-03-14T04:11:10;18.33;;;10.00;;
46781;SDS011;32541;46.298;11.506;2023-03-14T04:13:35;16.03;;;9.13;;
46781;SDS011;32541;46.298;11.506;2023-03-14T04:16:01;15.47;;;10.23;;
46781;SDS011;32541;46.298;11.506;2023-03-14T04:18:26;16.43;;;9.87;;
46781;SDS011;32541;46.298;11.506;2023-03-14T04:20:52;16.20;;;9.27;;
46781;SDS011;32541;46.298;11.506;2023-03-14T04:23:19;13.90;;;9.10;;
46781;SDS011;32541;46.298;11.506;2023-03-14T04:25:44;12.70;;;9.00;;
46781;SDS011;32541;46.298;11.506;2023-03-14T04:28:13;14.40;;;10.03;;
46781;SDS011;32541;46.298;11.506;2023-03-14T04:30:38;16.60;;;11.53;;
46781;SDS011;32541;46.298;11.506;2023-03-14T04:33:03;18.30;;;12.47;;
46781;SDS011;32541;46.298;11.506;2023-03-14T04:35:32;25.60;;;13.00;;
46781;SDS011;32541;46.298;11.506;2023-03-14T04:37:58;16.73;;;12.10;;
46781;SDS011;32541;46.298;11.506;2023-03-14T04:40:24;17.53;;;11.77;;
46781;SDS011;32541;46.298;11.506;2023-03-14T04:42:50;17.97;;;12.07;;
46781;SDS011;32541;46.298;11.506;2023-03-14T04:45:15;19.63;;;12.97;;
46781;SDS011;32541;46.298;11.506;2023-03-14T04:47:41;15.60;;;11.07;;
46781;SDS011;32541;46.298;11.506;2023-03-14T04:50:07;15.40;;;10.90;;
46781;SDS011;32541;46.298;11.506;2023-03-14T04:52:33;19.20;;;10.83;;
46781;SDS011;32541;46.298;11.506;2023-03-14T04:54:59;14.53;;;9.63;;
46781;SDS011;32541;46.298;11.506;2023-03-14T04:57:24;17.33;;;10.20;;
46781;SDS011;32541;46.298;11.506;2023-03-14T04:59:50;15.03;;;10.20;;
46781;SDS011;32541;46.298;11.506;2023-03-14T05:02:15;11.90;;;8.47;;
46781;SDS011;32541;46.298;11.506;2023-03-14T05:04:41;11.97;;;8.63;;
46781;SDS011;32541;46.298;11.506;2023-03-14T05:07:06;13.13;;;8.47;;
46781;SDS011;32541;46.298;11.506;2023-03-14T05:09:31;16.10;;;11.17;;
46781;SDS011;32541;46.298;11.506;2023-03-14T05:11:57;12.67;;;8.87;;
46781;SDS011;32541;46.298;11.506;2023-03-14T05:14:22;14.20;;;9.37;;
46781;SDS011;32541;46.298;11.506;2023-03-14T05:16:47;15.50;;;9.57;;
46781;SDS011;32541;46.298;11.506;2023-03-14T05:19:13;15.43;;;10.57;;
46781;SDS011;32541;46.298;11.506;2023-03-14T05:21:38;10.57;;;8.43;;
46781;SDS011;32541;46.298;11.506;2023-03-14T05:24:04;10.70;;;8.43;;
46781;SDS011;32541;46.298;11.506;2023-03-14T05:26:29;11.83;;;8.07;;
46781;SDS011;32541;46.298;11.506;2023-03-14T05:28:55;14.70;;;9.03;;
46781;SDS011;32541;46.298;11.506;2023-03-14T05:31:20;15.93;;;9.73;;
46781;SDS011;32541;46.298;11.506;2023-03-14T05:33:46;13.73;;;8.27;;
46781;SDS011;32541;46.298;11.506;2023-03-14T05:36:11;16.43;;;9.17;;
46781;SDS011;32541;46.298;11.506;2023-03-14T05:38:37;16.83;;;9.37;;
46781;SDS011;32541;46.298;11.506;2023-03-14T05:41:02;13.37;;;9.50;;
46781;SDS011;32541;46.298;11.506;2023-03-14T05:43:28;13.23;;;9.30;;
46781;SDS011;32541;46.298;11.506;2023-03-14T05:45:53;14.97;;;9.80;;
46781;SDS011;32541;46.298;11.506;2023-03-14T05:48:18;16.77;;;11.70;;
46781;SDS011;32541;46.298;11.506;2023-03-14T05:50:44;17.37;;;12.93;;
46781;SDS011;32541;46.298;11.506;2023-03-14T05:53:09;15.17;;;11.20;;
46781;SDS011;32541;46.298;11.506;2023-03-14T05:55:35;17.77;;;11.57;;
46781;SDS011;32541;46.298;11.506;2023-03-14T05:58:00;14.17;;;9.17;;
46781;SDS011;32541;46.298;11.506;2023-03-14T06:00:25;15.87;;;9.70;;
46781;SDS011;32541;46.298;11.506;2023-03-14T06:02:51;16.17;;;9.80;;
46781;SDS011;32541;46.298;11.506;2023-03-14T06:05:16;15.03;;;9.63;;
46781;SDS011;32541;46.298;11.506;2023-03-14T06:07:42;14.33;;;10.57;;
46781;SDS011;32541;46.298;11.506;2023-03-14T06:10:07;12.70;;;9.17;;
46781;SDS011;32541;46.298;11.506;2023-03-14T06:12:33;12.80;;;9.30;;
46781;SDS011;32541;46.298;11.506;2023-03-14T06:14:59;13.90;;;9.00;;
46781;SDS011;32541;46.298;11.506;2023-03-14T06:17:24;7.17;;;4.60;;
46781;SDS011;32541;46.298;11.506;2023-03-14T06:19:50;9.80;;;6.83;;
46781;SDS011;32541;46.298;11.506;2023-03-14T06:22:15;10.07;;;5.17;;
46781;SDS011;32541;46.298;11.506;2023-03-14T06:24:40;8.60;;;5.53;;
46781;SDS011;32541;46.298;11.506;2023-03-14T06:27:06;7.40;;;4.90;;
46781;SDS011;32541;46.298;11.506;2023-03-14T06:29:31;6.43;;;4.33;;
46781;SDS011;32541;46.298;11.506;2023-03-14T06:31:57;7.40;;;4.73;;
46781;SDS011;32541;46.298;11.506;2023-03-14T06:34:22;5.73;;;4.40;;
46781;SDS011;32541;46.298;11.506;2023-03-14T06:36:47;8.10;;;4.67;;
46781;SDS011;32541;46.298;11.506;2023-03-14T06:39:14;8.40;;;4.50;;
46781;SDS011;32541;46.298;11.506;2023-03-14T06:41:39;6.60;;;4.30;;
46781;SDS011;32541;46.298;11.506;2023-03-14T06:44:05;7.80;;;4.77;;
46781;SDS011;32541;46.298;11.506;2023-03-14T06:46:31;7.40;;;4.77;;
46781;SDS011;32541;46.298;11.506;2023-03-14T06:48:56;9.47;;;5.13;;
46781;SDS011;32541;46.298;11.506;2023-03-14T06:51:22;9.57;;;5.63;;
46781;SDS011;32541;46.298;11.506;2023-03-14T06:53:47;7.20;;;4.57;;
46781;SDS011;32541;46.298;11.506;2023-03-14T06:56:13;10.27;;;6.67;;
46781;SDS011;32541;46.298;11.506;2023-03-14T06:58:38;17.27;;;8.60;;
46781;SDS011;32541;46.298;11.506;2023-03-14T07:01:04;18.57;;;11.50;;
46781;SDS011;32541;46.298;11.506;2023-03-14T07:03:29;19.40;;;13.70;;
46781;SDS011;32541;46.298;11.506;2023-03-14T07:05:54;18.50;;;12.33;;
46781;SDS011;32541;46.298;11.506;2023-03-14T07:08:20;18.93;;;12.97;;
46781;SDS011;32541;46.298;11.506;2023-03-14T07:10:46;18.13;;;13.23;;
46781;SDS011;32541;46.298;11.506;2023-03-14T07:13:11;18.77;;;12.57;;
46781;SDS011;32541;46.298;11.506;2023-03-14T07:15:37;17.33;;;11.43;;
46781;SDS011;32541;46.298;11.506;2023-03-14T07:18:02;17.07;;;10.20;;
46781;SDS011;32541;46.298;11.506;2023-03-14T07:20:27;18.80;;;12.40;;
46781;SDS011;32541;46.298;11.506;2023-03-14T07:22:54;14.97;;;10.43;;
46781;SDS011;32541;46.298;11.506;2023-03-14T07:25:19;36.50;;;29.20;;
46781;SDS011;32541;46.298;11.506;2023-03-14T07:27:45;13.43;;;10.07;;
46781;SDS011;32541;46.298;11.506;2023-03-14T07:30:12;12.93;;;7.47;;
46781;SDS011;32541;46.298;11.506;2023-03-14T07:32:38;8.73;;;5.43;;
46781;SDS011;32541;46.298;11.506;2023-03-14T07:35:04;10.77;;;6.53;;
46781;SDS011;32541;46.298;11.506;2023-03-14T07:37:29;11.90;;;9.23;;
46781;SDS011;32541;46.298;11.506;2023-03-14T07:39:55;10.73;;;7.00;;
46781;SDS011;32541;46.298;11.506;2023-03-14T07:42:20;6.70;;;5.63;;
46781;SDS011;32541;46.298;11.506;2023-03-14T07:44:46;8.77;;;5.40;;
46781;SDS011;32541;46.298;11.506;2023-03-14T07:47:11;8.13;;;5.57;;
46781;SDS011;32541;46.298;11.506;2023-03-14T07:49:36;11.13;;;5.43;;
46781;SDS011;32541;46.298;11.506;2023-03-14T07:52:02;6.20;;;5.03;;
46781;SDS011;32541;46.298;11.506;2023-03-14T07:54:27;6.90;;;5.20;;
46781;SDS011;32541;46.298;11.506;2023-03-14T07:56:52;10.00;;;5.90;;
46781;SDS011;32541;46.298;11.506;2023-03-14T07:59:18;8.45;;;5.80;;
46781;SDS011;32541;46.298;11.506;2023-03-14T08:01:44;5.73;;;4.90;;
46781;SDS011;32541;46.298;11.506;2023-03-14T08:04:09;7.27;;;5.10;;
46781;SDS011;32541;46.298;11.506;2023-03-14T08:06:35;8.20;;;5.47;;
46781;SDS011;32541;46.298;11.506;2023-03-14T08:09:01;8.88;;;5.43;;
46781;SDS011;32541;46.298;11.506;2023-03-14T08:11:27;10.80;;;7.73;;
46781;SDS011;32541;46.298;11.506;2023-03-14T08:13:53;9.03;;;6.73;;
46781;SDS011;32541;46.298;11.506;2023-03-14T08:16:18;11.90;;;7.50;;
46781;SDS011;32541;46.298;11.506;2023-03-14T08:18:44;13.07;;;6.87;;
46781;SDS011;32541;46.298;11.506;2023-03-14T08:21:10;9.40;;;5.83;;
46781;SDS011;32541;46.298;11.506;2023-03-14T08:23:36;9.00;;;6.80;;
46781;SDS011;32541;46.298;11.506;2023-03-14T08:26:01;8.57;;;6.13;;
46781;SDS011;32541;46.298;11.506;2023-03-14T08:28:27;9.70;;;6.20;;
46781;SDS011;32541;46.298;11.506;2023-03-14T08:30:55;8.43;;;7.10;;
46781;SDS011;32541;46.298;11.506;2023-03-14T08:33:21;9.97;;;6.93;;
46781;SDS011;32541;46.298;11.506;2023-03-14T08:35:47;8.23;;;6.30;;
46781;SDS011;32541;46.298;11.506;2023-03-14T08:38:12;8.23;;;6.20;;
46781;SDS011;32541;46.298;11.506;2023-03-14T08:40:38;8.27;;;6.10;;
46781;SDS011;32541;46.298;11.506;2023-03-14T08:43:03;9.10;;;6.20;;
46781;SDS011;32541;46.298;11.506;2023-03-14T08:45:28;8.30;;;5.83;;
46781;SDS011;32541;46.298;11.506;2023-03-14T08:47:54;8.67;;;6.27;;
46781;SDS011;32541;46.298;11.506;2023-03-14T08:50:19;8.47;;;6.43;;
46781;SDS011;32541;46.298;11.506;2023-03-14T08:52:45;10.17;;;7.20;;
46781;SDS011;32541;46.298;11.506;2023-03-14T08:55:10;9.90;;;7.67;;
46781;SDS011;32541;46.298;11.506;2023-03-14T08:57:35;8.27;;;6.70;;
46781;SDS011;32541;46.298;11.506;2023-03-14T09:00:02;10.17;;;7.43;;
46781;SDS011;32541;46.298;11.506;2023-03-14T09:02:31;8.00;;;6.13;;
46781;SDS011;32541;46.298;11.506;2023-03-14T09:04:56;7.50;;;6.07;;
46781;SDS011;32541;46.298;11.506;2023-03-14T09:07:21;9.10;;;6.60;;
46781;SDS011;32541;46.298;11.506;2023-03-14T09:09:47;8.10;;;5.90;;
46781;SDS011;32541;46.298;11.506;2023-03-14T09:12:12;8.97;;;6.23;;
46781;SDS011;32541;46.298;11.506;2023-03-14T09:14:39;10.87;;;7.50;;
46781;SDS011;32541;46.298;11.506;2023-03-14T09:17:04;9.97;;;6.53;;
46781;SDS011;32541;46.298;11.506;2023-03-14T09:19:30;8.40;;;6.00;;
46781;SDS011;32541;46.298;11.506;2023-03-14T09:21:55;7.80;;;6.43;;
46781;SDS011;32541;46.298;11.506;2023-03-14T09:24:21;8.67;;;7.03;;
46781;SDS011;32541;46.298;11.506;2023-03-14T09:26:46;10.20;;;7.75;;
46781;SDS011;32541;46.298;11.506;2023-03-14T09:29:12;7.88;;;6.47;;
46781;SDS011;32541;46.298;11.506;2023-03-14T09:31:37;6.82;;;5.85;;
46781;SDS011;32541;46.298;11.506;2023-03-14T09:34:03;7.95;;;5.22;;
46781;SDS011;32541;46.298;11.506;2023-03-14T09:36:28;5.72;;;4.70;;
46781;SDS011;32541;46.298;11.506;2023-03-14T09:38:54;6.72;;;4.18;;
46781;SDS011;32541;46.298;11.506;2023-03-14T09:41:35;7.82;;;5.90;;
46781;SDS011;32541;46.298;11.506;2023-03-14T09:44:10;6.95;;;6.00;;
46781;SDS011;32541;46.298;11.506;2023-03-14T09:46:39;6.38;;;4.95;;
46781;SDS011;32541;46.298;11.506;2023-03-14T09:49:12;6.70;;;4.38;;
46781;SDS011;32541;46.298;11.506;2023-03-14T09:51:45;4.85;;;3.70;;
46781;SDS011;32541;46.298;11.506;2023-03-14T09:57:00;7.15;;;3.95;;
46781;SDS011;32541;46.298;11.506;2023-03-14T09:59:27;4.63;;;4.13;;
46781;SDS011;32541;46.298;11.506;2023-03-14T10:01:55;5.38;;;4.00;;
46781;SDS011;32541;46.298;11.506;2023-03-14T10:04:23;6.13;;;4.82;;
46781;SDS011;32541;46.298;11.506;2023-03-14T10:06:49;6.82;;;4.65;;
46781;SDS011;32541;46.298;11.506;2023-03-14T10:09:17;5.18;;;3.70;;
46781;SDS011;32541;46.298;11.506;2023-03-14T10:11:50;6.03;;;4.05;;
46781;SDS011;32541;46.298;11.506;2023-03-14T10:14:28;5.57;;;3.80;;
46781;SDS011;32541;46.298;11.506;2023-03-14T10:16:54;4.47;;;3.38;;
46781;SDS011;32541;46.298;11.506;2023-03-14T10:19:31;4.50;;;3.13;;
46781;SDS011;32541;46.298;11.506;2023-03-14T10:21:56;4.90;;;3.45;;
46781;SDS011;32541;46.298;11.506;2023-03-14T10:26:53;5.55;;;4.18;;
46781;SDS011;32541;46.298;11.506;2023-03-14T10:29:23;3.63;;;2.72;;
46781;SDS011;32541;46.298;11.506;2023-03-14T10:31:58;4.07;;;3.42;;
46781;SDS011;32541;46.298;11.506;2023-03-14T10:34:30;18.48;;;13.75;;
46781;SDS011;32541;46.298;11.506;2023-03-14T10:36:58;3.42;;;2.50;;
46781;SDS011;32541;46.298;11.506;2023-03-14T10:39:35;5.38;;;3.42;;
46781;SDS011;32541;46.298;11.506;2023-03-14T10:42:26;8.77;;;2.88;;
46781;SDS011;32541;46.298;11.506;2023-03-14T10:44:55;2.60;;;2.05;;
46781;SDS011;32541;46.298;11.506;2023-03-14T10:47:23;3.53;;;2.47;;
46781;SDS011;32541;46.298;11.506;2023-03-14T10:49:51;6.47;;;1.90;;
46781;SDS011;32541;46.298;11.506;2023-03-14T10:54:45;2.60;;;1.75;;
46781;SDS011;32541;46.298;11.506;2023-03-14T10:57:12;1.95;;;1.48;;
46781;SDS011;32541;46.298;11.506;2023-03-14T10:59:39;3.78;;;1.73;;
46781;SDS011;32541;46.298;11.506;2023-03-14T11:02:13;3.47;;;2.35;;
46781;SDS011;32541;46.298;11.506;2023-03-14T11:07:40;2.30;;;1.35;;
46781;SDS011;32541;46.298;11.506;2023-03-14T11:10:19;4.47;;;1.20;;
46781;SDS011;32541;46.298;11.506;2023-03-14T11:15:50;4.22;;;1.42;;
46781;SDS011;32541;46.298;11.506;2023-03-14T11:20:51;2.30;;;1.30;;
46781;SDS011;32541;46.298;11.506;2023-03-14T11:29:08;1.80;;;0.90;;
46781;SDS011;32541;46.298;11.506;2023-03-14T11:36:46;1.48;;;0.75;;
46781;SDS011;32541;46.298;11.506;2023-03-14T11:39:18;3.85;;;0.80;;
46781;SDS011;32541;46.298;11.506;2023-03-14T11:41:51;1.05;;;0.80;;
46781;SDS011;32541;46.298;11.506;2023-03-14T11:44:22;1.83;;;1.33;;
46781;SDS011;32541;46.298;11.506;2023-03-14T11:49:32;1.45;;;0.85;;
46781;SDS011;32541;46.298;11.506;2023-03-14T11:55:31;1.95;;;0.70;;
46781;SDS011;32541;46.298;11.506;2023-03-14T11:58:05;1.38;;;0.63;;
46781;SDS011;32541;46.298;11.506;2023-03-14T12:00:38;8.60;;;7.22;;
46781;SDS011;32541;46.298;11.506;2023-03-14T12:03:12;1.20;;;0.80;;
46781;SDS011;32541;46.298;11.506;2023-03-14T12:11:30;1.58;;;0.70;;
46781;SDS011;32541;46.298;11.506;2023-03-14T12:13:56;1.95;;;0.73;;
46781;SDS011;32541;46.298;11.506;2023-03-14T12:18:53;0.75;;;0.57;;
46781;SDS011;32541;46.298;11.506;2023-03-14T12:21:19;2.33;;;0.80;;
46781;SDS011;32541;46.298;11.506;2023-03-14T12:23:48;4.00;;;1.00;;
46781;SDS011;32541;46.298;11.506;2023-03-14T12:29:27;1.40;;;0.90;;
46781;SDS011;32541;46.298;11.506;2023-03-14T12:31:38;1.70;;;0.98;;
46781;SDS011;32541;46.298;11.506;2023-03-14T12:44:49;2.25;;;0.70;;
46781;SDS011;32541;46.298;11.506;2023-03-14T12:49:45;1.17;;;0.75;;
46781;SDS011;32541;46.298;11.506;2023-03-14T12:52:13;1.25;;;0.70;;
46781;SDS011;32541;46.298;11.506;2023-03-14T12:55:02;1.52;;;0.80;;
46781;SDS011;32541;46.298;11.506;2023-03-14T13:01:02;1.33;;;0.80;;
46781;SDS011;32541;46.298;11.506;2023-03-14T13:03:45;13.43;;;8.48;;
46781;SDS011;32541;46.298;11.506;2023-03-14T13:12:12;1.17;;;0.75;;
46781;SDS011;32541;46.298;11.506;2023-03-14T13:14:48;1.13;;;0.60;;
46781;SDS011;32541;46.298;11.506;2023-03-14T13:17:19;1.98;;;1.35;;
46781;SDS011;32541;46.298;11.506;2023-03-14T13:19:52;1.70;;;0.55;;
46781;SDS011;32541;46.298;11.506;2023-03-14T13:22:26;8.03;;;3.73;;
46781;SDS011;32541;46.298;11.506;2023-03-14T13:25:00;1.65;;;0.90;;
46781;SDS011;32541;46.298;11.506;2023-03-14T13:27:31;48.70;;;22.48;;
46781;SDS011;32541;46.298;11.506;2023-03-14T13:29:59;2.22;;;0.90;;
46781;SDS011;32541;46.298;11.506;2023-03-14T13:32:30;3.95;;;2.20;;
46781;SDS011;32541;46.298;11.506;2023-03-14T13:34:56;17.30;;;11.13;;
46781;SDS011;32541;46.298;11.506;2023-03-14T13:37:23;9.65;;;6.32;;
46781;SDS011;32541;46.298;11.506;2023-03-14T13:39:51;3.38;;;2.15;;
46781;SDS011;32541;46.298;11.506;2023-03-14T13:42:20;2.15;;;1.27;;
46781;SDS011;32541;46.298;11.506;2023-03-14T13:44:49;3.22;;;1.92;;
46781;SDS011;32541;46.298;11.506;2023-03-14T13:47:17;1.27;;;0.90;;
46781;SDS011;32541;46.298;11.506;2023-03-14T13:49:44;2.17;;;0.90;;
46781;SDS011;32541;46.298;11.506;2023-03-14T13:54:56;1.60;;;0.50;;
46781;SDS011;32541;46.298;11.506;2023-03-14T13:57:24;0.50;;;0.50;;
46781;SDS011;32541;46.298;11.506;2023-03-14T14:00:03;1.23;;;0.50;;
46781;SDS011;32541;46.298;11.506;2023-03-14T14:02:35;1.60;;;0.73;;
46781;SDS011;32541;46.298;11.506;2023-03-14T14:05:02;2.72;;;1.15;;
46781;SDS011;32541;46.298;11.506;2023-03-14T14:07:29;2.33;;;0.77;;
46781;SDS011;32541;46.298;11.506;2023-03-14T14:09:54;0.80;;;0.50;;
46781;SDS011;32541;46.298;11.506;2023-03-14T14:12:31;1.23;;;0.70;;
46781;SDS011;32541;46.298;11.506;2023-03-14T14:17:38;0.93;;;0.50;;
46781;SDS011;32541;46.298;11.506;2023-03-14T14:20:07;0.93;;;0.40;;
46781;SDS011;32541;46.298;11.506;2023-03-14T14:25:05;2.40;;;0.68;;
46781;SDS011;32541;46.298;11.506;2023-03-14T14:27:36;1.15;;;0.60;;
46781;SDS011;32541;46.298;11.506;2023-03-14T14:30:05;2.47;;;0.98;;
46781;SDS011;32541;46.298;11.506;2023-03-14T14:32:42;0.93;;;0.80;;
46781;SDS011;32541;46.298;11.506;2023-03-14T14:35:10;2.63;;;0.50;;
46781;SDS011;32541;46.298;11.506;2023-03-14T14:37:46;1.85;;;0.80;;
46781;SDS011;32541;46.298;11.506;2023-03-14T14:40:18;1.67;;;0.60;;
46781;SDS011;32541;46.298;11.506;2023-03-14T14:42:45;1.52;;;0.68;;
46781;SDS011;32541;46.298;11.506;2023-03-14T14:45:19;1.10;;;0.57;;
46781;SDS011;32541;46.298;11.506;2023-03-14T14:50:34;1.75;;;0.75;;
46781;SDS011;32541;46.298;11.506;2023-03-14T14:53:00;1.40;;;0.70;;
46781;SDS011;32541;46.298;11.506;2023-03-14T14:55:49;2.35;;;0.90;;
46781;SDS011;32541;46.298;11.506;2023-03-14T14:58:18;2.40;;;0.80;;
46781;SDS011;32541;46.298;11.506;2023-03-14T15:00:49;1.30;;;0.80;;
46781;SDS011;32541;46.298;11.506;2023-03-14T15:03:21;1.98;;;0.93;;
46781;SDS011;32541;46.298;11.506;2023-03-14T15:05:46;0.82;;;0.60;;
46781;SDS011;32541;46.298;11.506;2023-03-14T15:08:12;1.50;;;0.80;;
46781;SDS011;32541;46.298;11.506;2023-03-14T15:10:38;2.38;;;0.98;;
46781;SDS011;32541;46.298;11.506;2023-03-14T15:13:03;2.50;;;0.95;;
46781;SDS011;32541;46.298;11.506;2023-03-14T15:15:29;3.45;;;1.00;;
46781;SDS011;32541;46.298;11.506;2023-03-14T15:17:54;1.55;;;1.00;;
46781;SDS011;32541;46.298;11.506;2023-03-14T15:20:19;1.48;;;0.95;;
46781;SDS011;32541;46.298;11.506;2023-03-14T15:22:48;2.65;;;0.65;;
46781;SDS011;32541;46.298;11.506;2023-03-14T15:25:14;2.15;;;0.90;;
46781;SDS011;32541;46.298;11.506;2023-03-14T15:27:58;1.02;;;0.73;;
46781;SDS011;32541;46.298;11.506;2023-03-14T15:30:23;1.75;;;0.80;;
46781;SDS011;32541;46.298;11.506;2023-03-14T15:32:49;2.15;;;1.13;;
46781;SDS011;32541;46.298;11.506;2023-03-14T15:35:15;2.08;;;0.90;;
46781;SDS011;32541;46.298;11.506;2023-03-14T15:37:40;2.28;;;1.00;;
46781;SDS011;32541;46.298;11.506;2023-03-14T15:40:06;5.10;;;2.03;;
46781;SDS011;32541;46.298;11.506;2023-03-14T15:42:38;2.92;;;1.75;;
46781;SDS011;32541;46.298;11.506;2023-03-14T15:45:04;3.28;;;0.98;;
46781;SDS011;32541;46.298;11.506;2023-03-14T15:47:29;3.38;;;0.85;;
46781;SDS011;32541;46.298;11.506;2023-03-14T15:49:57;1.52;;;0.85;;
46781;SDS011;32541;46.298;11.506;2023-03-14T15:52:22;0.95;;;0.77;;
46781;SDS011;32541;46.298;11.506;2023-03-14T15:54:48;3.78;;;0.90;;
46781;SDS011;32541;46.298;11.506;2023-03-14T15:57:14;1.92;;;0.80;;